Carroll, IA

5:11 AM CDT on March 26, 2017 (GMT -0500)
Neu

Weather History for KCIN - April, 2013

Change the Weather History Date:

Monday, April 15, 2013

  Actual Average Record
Temperature  
Mean Temperature 40 °F -  
Max Temperature 46 °F 63 °F 93 °F (2002)
Min Temperature 33 °F 35 °F 16 °F (1962)
Degree Days  
Heating Degree Days 26    
Moisture  
Dew Point 30 °F    
Average Humidity 72    
Maximum Humidity 87    
Minimum Humidity 57    
Precipitation  
Precipitation 0.00 in - - ()
Sea Level Pressure  
Sea Level Pressure 29.86 in    
Wind  
Wind Speed 11 mph (West)    
Max Wind Speed 20 mph    
Max Gust Speed 26 mph    
Visibility 10 miles    
Events      
Averages and records for this station are not official NWS values.
T = Trace of Precipitation, MM = Missing Value Source: NWS Daily Summary

Daily Weather History Graph

Daily Weather History Graph

Search for Another Location

Airport or City:

Trip Planner

Search our weather history database for the weather conditions in past years. The results will help you decide how hot, cold, wet, or windy it might be!

Date:

Astronomy

Apr. 15, 2013 Rise Set
Actual Time 6:38 AM CDT 8:00 PM CDT
Civil Twilight 6:09 AM CDT 8:29 PM CDT
Nautical Twilight 5:34 AM CDT 9:04 PM CDT
Astronomical Twilight 4:57 AM CDT 9:41 PM CDT
Moon 10:02 AM CDT (4/15) 12:16 AM CDT (4/15)
Length of Visible Light 14h 20m
Length of Day
13h 22m
Waxing Crescent, 25% of the Moon is Illuminated
Apr 15
Waxing Crescent
Apr 18
First Quarter
Apr 25
Full
May 2
Last Quarter
May 9
New

Hourly Weather History & Observations

Time (CDT) Temp. Windchill Dew Point Humidity Pressure Visibility Wind Dir Wind Speed Gust Speed Precip Events Conditions
12:15 AM 41.0 °F 36.4 °F 35.6 °F 81% 29.64 in 10.0 mi West 6.9 mph - N/A   Clear
12:35 AM 41.0 °F 35.8 °F 33.8 °F 76% 29.64 in 10.0 mi WSW 8.1 mph - N/A   Clear
12:55 AM 41.0 °F 34.7 °F 33.8 °F 76% 29.64 in 10.0 mi SW 10.4 mph - N/A   Clear
1:15 AM 41.0 °F 34.3 °F 33.8 °F 76% 29.65 in 10.0 mi SSW 11.5 mph - N/A   Clear
1:35 AM 41.0 °F 34.7 °F 33.8 °F 76% 29.65 in 10.0 mi SW 10.4 mph - N/A   Clear
1:55 AM 37.4 °F 30.8 °F 33.8 °F 87% 29.66 in 10.0 mi WSW 9.2 mph - N/A   Clear
2:15 AM 37.4 °F 31.4 °F 33.8 °F 87% 29.67 in 10.0 mi WSW 8.1 mph - N/A   Clear
2:35 AM 37.4 °F 30.3 °F 33.8 °F 87% 29.67 in 10.0 mi WSW 10.4 mph - N/A   Clear
2:55 AM 37.4 °F 29.3 °F 33.8 °F 87% 29.66 in 10.0 mi NW 12.7 mph - N/A   Clear
3:15 AM 37.4 °F 33.8 °F 32.0 °F 81% 29.68 in 10.0 mi WSW 4.6 mph - N/A   Clear
3:35 AM 35.6 °F 32.8 °F 32.0 °F 87% 29.68 in 10.0 mi WSW 3.5 mph - N/A   Clear
3:55 AM 35.6 °F 31.7 °F 32.0 °F 87% 29.70 in 10.0 mi SW 4.6 mph - N/A   Clear
4:15 AM 35.6 °F 28.6 °F 32.0 °F 87% 29.69 in 10.0 mi West 9.2 mph - N/A   Clear
4:35 AM 35.6 °F 28.0 °F 32.0 °F 87% 29.71 in 10.0 mi SW 10.4 mph - N/A   Clear
4:55 AM 35.6 °F 27.5 °F 30.2 °F 81% 29.71 in 10.0 mi West 11.5 mph 17.3 mph N/A   Clear
5:15 AM 33.8 °F 27.7 °F 30.2 °F 87% 29.71 in 10.0 mi SW 6.9 mph - N/A   Clear
5:35 AM 33.8 °F 28.6 °F 30.2 °F 87% 29.71 in 10.0 mi SSW 5.8 mph - N/A   Clear
5:55 AM 33.8 °F 27.7 °F 30.2 °F 87% 29.72 in 10.0 mi SSW 6.9 mph - N/A   Clear
6:15 AM 33.8 °F 26.4 °F 30.2 °F 87% 29.73 in 10.0 mi SW 9.2 mph - N/A   Clear
6:35 AM 35.6 °F 27.1 °F 28.4 °F 75% 29.74 in 10.0 mi West 12.7 mph - N/A   Clear
6:55 AM 35.6 °F 25.9 °F 26.6 °F 70% 29.78 in 10.0 mi WSW 16.1 mph - N/A   Clear
7:15 AM 35.6 °F 25.2 °F 24.8 °F 65% 29.79 in 10.0 mi WSW 18.4 mph - N/A   Clear
7:35 AM 33.8 °F 25.3 °F 26.6 °F 75% 29.80 in 10.0 mi WSW 11.5 mph - N/A   Clear
7:55 AM 35.6 °F 27.1 °F 24.8 °F 65% 29.81 in 10.0 mi WSW 12.7 mph 19.6 mph N/A   Clear
8:15 AM 35.6 °F 24.8 °F 24.8 °F 65% 29.84 in 10.0 mi WSW 19.6 mph - N/A   Scattered Clouds
8:35 AM 35.6 °F 26.2 °F 24.8 °F 65% 29.82 in 10.0 mi West 15.0 mph - N/A   Mostly Cloudy
8:55 AM 35.6 °F 26.6 °F 24.8 °F 65% 29.81 in 10.0 mi West 13.8 mph 20.7 mph N/A   Mostly Cloudy
9:15 AM 35.6 °F 27.1 °F 24.8 °F 65% 29.83 in 10.0 mi WSW 12.7 mph 19.6 mph N/A   Mostly Cloudy
9:35 AM 35.6 °F 25.5 °F 24.8 °F 65% 29.85 in 10.0 mi West 17.3 mph - N/A   Overcast
9:55 AM 35.6 °F 25.5 °F 26.6 °F 70% 29.87 in 10.0 mi West 17.3 mph 25.3 mph N/A   Scattered Clouds
10:15 AM 35.6 °F 25.2 °F 24.8 °F 65% 29.88 in 10.0 mi West 18.4 mph 26.5 mph N/A   Scattered Clouds
10:35 AM 35.6 °F 25.2 °F 26.6 °F 70% 29.88 in 10.0 mi West 18.4 mph - N/A   Mostly Cloudy
10:55 AM 35.6 °F 27.1 °F 26.6 °F 70% 29.87 in 10.0 mi West 12.7 mph - N/A   Mostly Cloudy
11:15 AM 35.6 °F 25.5 °F 26.6 °F 70% 29.88 in 10.0 mi WSW 17.3 mph 23.0 mph N/A   Mostly Cloudy
11:35 AM 37.4 °F 27.8 °F 28.4 °F 70% 29.89 in 10.0 mi West 17.3 mph - N/A   Overcast
11:55 AM 37.4 °F 27.5 °F 26.6 °F 65% 29.90 in 10.0 mi West 18.4 mph - N/A   Overcast
12:15 PM 37.4 °F 27.5 °F 28.4 °F 70% 29.91 in 10.0 mi West 18.4 mph - N/A   Overcast
12:35 PM 37.4 °F 28.5 °F 28.4 °F 70% 29.93 in 10.0 mi West 15.0 mph 21.9 mph N/A   Overcast
12:55 PM 37.4 °F 27.2 °F 28.4 °F 70% 29.92 in 10.0 mi West 19.6 mph - N/A   Overcast
1:15 PM 37.4 °F 28.5 °F 28.4 °F 70% 29.92 in 10.0 mi WNW 15.0 mph 21.9 mph N/A   Overcast
1:35 PM 39.2 °F 30.8 °F 30.2 °F 70% 29.92 in 10.0 mi West 15.0 mph - N/A   Overcast
1:55 PM 39.2 °F 31.2 °F 30.2 °F 70% 29.92 in 10.0 mi West 13.8 mph - N/A   Overcast
2:15 PM 39.2 °F 30.8 °F 30.2 °F 70% 29.92 in 10.0 mi West 15.0 mph - N/A   Overcast
2:35 PM 41.0 °F 33.9 °F 30.2 °F 65% 29.92 in 10.0 mi WNW 12.7 mph - N/A   Overcast
2:55 PM 41.0 °F 32.8 °F 30.2 °F 65% 29.91 in 10.0 mi West 16.1 mph - N/A   Overcast
3:15 PM 42.8 °F 36.2 °F 32.0 °F 66% 29.91 in 10.0 mi WNW 12.7 mph - N/A   Overcast
3:35 PM 44.6 °F 37.8 °F 30.2 °F 57% 29.91 in 10.0 mi West 15.0 mph - N/A   Mostly Cloudy
3:55 PM 42.8 °F 36.6 °F 30.2 °F 61% 29.91 in 10.0 mi WNW 11.5 mph - N/A   Mostly Cloudy
4:15 PM 42.8 °F 37.5 °F 30.2 °F 61% 29.90 in 10.0 mi WNW 9.2 mph - N/A   Mostly Cloudy
4:35 PM 42.8 °F 36.6 °F 30.2 °F 61% 29.90 in 10.0 mi NW 11.5 mph - N/A   Mostly Cloudy
4:55 PM 44.6 °F 39.2 °F 30.2 °F 57% 29.90 in 10.0 mi NW 10.4 mph - N/A   Mostly Cloudy
5:15 PM 46.4 °F 39.8 °F 32.0 °F 57% 29.90 in 10.0 mi NW 16.1 mph - N/A   Mostly Cloudy
5:35 PM 46.4 °F 40.7 °F 32.0 °F 57% 29.91 in 10.0 mi NNW 12.7 mph 19.6 mph N/A   Mostly Cloudy
5:55 PM 46.4 °F 39.8 °F 32.0 °F 57% 29.91 in 10.0 mi NW 16.1 mph - N/A   Scattered Clouds
6:15 PM 46.4 °F 39.8 °F 32.0 °F 57% 29.92 in 10.0 mi NNW 16.1 mph - N/A   Partly Cloudy
6:35 PM 44.6 °F 36.9 °F 32.0 °F 61% 29.93 in 10.0 mi NNW 18.4 mph - N/A   Mostly Cloudy
6:55 PM 44.6 °F 37.4 °F 32.0 °F 61% 29.94 in 10.0 mi NNW 16.1 mph - N/A   Scattered Clouds
7:15 PM 42.8 °F 34.8 °F 32.0 °F 66% 29.94 in 10.0 mi NNW 17.3 mph - N/A   Mostly Cloudy
7:35 PM 42.8 °F 35.1 °F 32.0 °F 66% 29.95 in 10.0 mi NNW 16.1 mph - N/A   Mostly Cloudy
7:55 PM 41.0 °F 33.5 °F 32.0 °F 70% 29.96 in 10.0 mi NNW 13.8 mph 21.9 mph N/A   Overcast
8:15 PM 41.0 °F 33.9 °F 32.0 °F 70% 29.98 in 10.0 mi NNW 12.7 mph - N/A   Overcast
8:35 PM 39.2 °F 31.6 °F 32.0 °F 75% 29.99 in 10.0 mi NNW 12.7 mph 19.6 mph N/A   Overcast
8:55 PM 39.2 °F 31.2 °F 32.0 °F 75% 30.00 in 10.0 mi NNW 13.8 mph - N/A   Overcast
9:15 PM 37.4 °F 30.8 °F 30.2 °F 75% 30.02 in 10.0 mi NNW 9.2 mph - N/A   Mostly Cloudy
9:35 PM 37.4 °F 29.8 °F 30.2 °F 75% 30.03 in 10.0 mi NNW 11.5 mph - N/A   Scattered Clouds
9:55 PM 37.4 °F 30.3 °F 30.2 °F 75% 30.05 in 10.0 mi NW 10.4 mph - N/A   Mostly Cloudy
10:15 PM 37.4 °F 31.4 °F 32.0 °F 81% 30.06 in 10.0 mi NW 8.1 mph - N/A   Mostly Cloudy
10:35 PM 35.6 °F 29.2 °F 30.2 °F 81% 30.05 in 10.0 mi NNW 8.1 mph - N/A   Mostly Cloudy
10:55 PM 35.6 °F 29.2 °F 30.2 °F 81% 30.06 in 10.0 mi NW 8.1 mph - N/A   Partly Cloudy
11:15 PM 35.6 °F 29.2 °F 30.2 °F 81% 30.07 in 10.0 mi NNW 8.1 mph - N/A   Clear
11:35 PM 35.6 °F 28.6 °F 30.2 °F 81% 30.07 in 10.0 mi NW 9.2 mph - N/A   Partly Cloudy
11:55 PM 35.6 °F 28.0 °F 30.2 °F 81% 30.07 in 10.0 mi NW 10.4 mph - N/A   Partly Cloudy